Time;durP1;ratioP1;P1;durP2;ratioP2;P2;SDS_P1;SDS_P2;PMS_P1;PMS_P2;Temp;Humidity;BMP_temperature;BMP_pressure;BME280_temperature;BME280_humidity;BME280_pressure;Samples;Min_cycle;Max_cycle;Signal;HPM_P1;HPM_P2
2023/07/15 00:02:15;;;;;;;;;;;;;;;26.61;66.65;97554.97;5121888;28;19923;-76
2023/07/15 00:04:42;;;;;;;;;;;;;;;26.76;65.71;97555.88;5105219;28;19924;-76
2023/07/15 00:07:08;;;;;;;;;;;;;;;26.73;65.87;97557.44;5128938;28;19933;-76
2023/07/15 00:09:35;;;;;;;;;;;;;;;26.76;65.56;97556.69;5127441;28;19923;-75
2023/07/15 00:12:02;;;;;;;;;;;;;;;26.75;65.42;97555.09;5121825;28;20375;-76
2023/07/15 00:14:29;;;;;;;;;;;;;;;26.75;65.38;97551.56;5121552;28;19966;-76
2023/07/15 00:16:56;;;;;;;;;;;;;;;26.72;65.42;97547.63;5106779;28;19923;-76
2023/07/15 00:19:23;;;;;;;;;;;;;;;26.71;65.09;97550.72;5106854;28;19932;-76
2023/07/15 00:21:50;;;;;;;;;;;;;;;26.70;65.03;97558.19;5111820;28;19934;-76
2023/07/15 00:24:17;;;;;;;;;;;;;;;26.67;64.80;97555.41;5102816;28;19966;-76
2023/07/15 00:26:47;;;;;;;;;;;;;;;26.65;64.72;97553.03;5123113;28;19946;-76
2023/07/15 00:29:13;;;;;;;;;;;;;;;26.68;64.61;97555.03;5106529;28;19924;-74
2023/07/15 00:31:42;;;;;;;;;;;;;;;26.63;64.34;97551.84;5123426;28;20441;-74
2023/07/15 00:34:10;;;;;;;;;;;;;;;26.68;64.27;97559.69;5121066;28;19924;-75
2023/07/15 00:36:36;;;;;;;;;;;;;;;26.63;64.35;97560.84;5123230;28;20009;-75
2023/07/15 00:39:04;;;;;;;;;;;;;;;26.57;64.41;97561.56;5107480;28;19955;-74
2023/07/15 00:41:32;;;;;;;;;;;;;;;26.63;64.09;97562.78;5125264;28;20256;-74
2023/07/15 00:43:59;;;;;;;;;;;;;;;26.63;64.08;97562.78;5113811;28;19933;-74
2023/07/15 00:46:31;;;;;;;;;;;;;;;26.55;64.37;97563.91;5121309;28;19924;-74
2023/07/15 00:49:00;;;;;;;;;;;;;;;26.53;64.40;97569.72;5112736;28;19966;-74
2023/07/15 00:51:27;;;;;;;;;;;;;;;26.50;64.43;97570.47;5128480;28;19931;-73
2023/07/15 00:53:54;;;;;;;;;;;;;;;26.52;64.45;97562.66;5121266;28;19924;-73
2023/07/15 00:56:20;;;;;;;;;;;;;;;26.43;64.54;97564.16;5120765;28;19928;-74
2023/07/15 00:58:47;;;;;;;;;;;;;;;26.44;64.41;97568.47;5122664;28;19924;-74
2023/07/15 01:01:14;;;;;;;;;;;;;;;26.39;64.45;97575.06;5123883;28;19959;-74
2023/07/15 01:03:43;;;;;;;;;;;;;;;26.39;64.19;97575.06;5122588;28;19924;-74
2023/07/15 01:06:10;;;;;;;;;;;;;;;26.39;64.12;97577.81;5120340;28;19979;-74
2023/07/15 01:08:36;;;;;;;;;;;;;;;26.36;64.03;97575.03;5102918;28;19963;-74
2023/07/15 01:11:02;;;;;;;;;;;;;;;26.41;63.57;97580.94;5124020;28;19923;-74
2023/07/15 01:13:29;;;;;;;;;;;;;;;26.46;63.58;97583.34;5123724;28;19950;-73
2023/07/15 01:15:55;;;;;;;;;;;;;;;26.34;63.36;97572.66;5120353;28;19963;-74
2023/07/15 01:18:21;;;;;;;;;;;;;;;26.33;63.75;97575.78;5120131;28;19928;-74
2023/07/15 01:20:51;;;;;;;;;;;;;;;25.92;64.46;97569.38;5130115;28;19928;-74
2023/07/15 01:23:18;;;;;;;;;;;;;;;25.85;65.52;97578.28;5123566;28;20002;-75
2023/07/15 01:25:45;;;;;;;;;;;;;;;25.92;65.42;97567.44;5121944;28;19968;-74
2023/07/15 01:28:11;;;;;;;;;;;;;;;26.05;65.24;97563.31;5120342;28;19931;-74
2023/07/15 01:30:37;;;;;;;;;;;;;;;26.07;65.23;97568.38;5102695;28;20091;-74
2023/07/15 01:33:04;;;;;;;;;;;;;;;25.99;65.14;97569.47;5123546;28;19969;-74
2023/07/15 01:35:30;;;;;;;;;;;;;;;25.88;65.32;97565.78;5122483;28;20030;-74
2023/07/15 01:37:57;;;;;;;;;;;;;;;25.81;65.61;97565.72;5111519;28;19970;-74
2023/07/15 01:40:24;;;;;;;;;;;;;;;25.67;66.31;97569.81;5120286;28;19924;-74
2023/07/15 01:42:51;;;;;;;;;;;;;;;25.54;67.01;97563.00;5124592;28;20010;-74
2023/07/15 01:45:17;;;;;;;;;;;;;;;25.61;67.18;97557.63;5107690;28;19991;-74
2023/07/15 01:47:43;;;;;;;;;;;;;;;25.62;67.22;97558.44;5126903;28;19947;-74
2023/07/15 01:50:10;;;;;;;;;;;;;;;25.79;66.77;97563.34;5128203;28;19912;-74
2023/07/15 01:52:36;;;;;;;;;;;;;;;25.87;66.16;97572.44;5123740;28;19935;-74
2023/07/15 01:55:03;;;;;;;;;;;;;;;25.89;66.25;97572.84;5122823;28;20472;-74
2023/07/15 01:57:31;;;;;;;;;;;;;;;25.94;66.10;97572.50;5104581;28;19931;-74
2023/07/15 01:59:58;;;;;;;;;;;;;;;25.86;66.35;97573.59;5111123;28;19925;-74
2023/07/15 02:02:24;;;;;;;;;;;;;;;25.88;66.14;97580.25;5119393;28;19955;-74
2023/07/15 02:04:51;;;;;;;;;;;;;;;25.91;66.30;97565.03;5122083;28;19991;-74
2023/07/15 02:07:17;;;;;;;;;;;;;;;25.92;66.20;97566.63;5123181;28;19923;-74
2023/07/15 02:09:44;;;;;;;;;;;;;;;25.91;66.16;97570.53;5103373;28;19961;-74
2023/07/15 02:12:10;;;;;;;;;;;;;;;25.92;66.31;97572.91;5101465;28;19981;-74
2023/07/15 02:14:38;;;;;;;;;;;;;;;25.89;66.48;97573.63;5120337;28;19921;-74
2023/07/15 02:17:04;;;;;;;;;;;;;;;25.91;66.35;97559.56;5122956;28;19992;-75
2023/07/15 02:19:31;;;;;;;;;;;;;;;25.91;66.49;97570.53;5104627;28;19923;-75
2023/07/15 02:21:58;;;;;;;;;;;;;;;25.89;66.46;97567.38;5126163;28;19931;-75
2023/07/15 02:24:24;;;;;;;;;;;;;;;25.83;66.54;97564.19;5119254;28;19925;-75
2023/07/15 02:26:51;;;;;;;;;;;;;;;25.71;67.09;97573.41;5121803;28;19959;-75
2023/07/15 02:29:17;;;;;;;;;;;;;;;25.75;67.42;97573.44;5122683;28;19931;-75
2023/07/15 02:31:45;;;;;;;;;;;;;;;25.64;67.53;97567.03;5120855;28;19963;-75
2023/07/15 02:34:13;;;;;;;;;;;;;;;25.61;67.92;97563.09;5101054;28;19959;-75
2023/07/15 02:36:40;;;;;;;;;;;;;;;25.63;67.75;97565.44;5120031;28;20017;-75
2023/07/15 02:39:08;;;;;;;;;;;;;;;25.64;67.91;97567.84;5122704;28;19988;-75
2023/07/15 02:41:34;;;;;;;;;;;;;;;25.68;67.68;97570.63;5103970;28;19924;-75
2023/07/15 02:44:00;;;;;;;;;;;;;;;25.67;67.57;97569.81;5100811;28;19931;-75
2023/07/15 02:46:27;;;;;;;;;;;;;;;25.56;67.91;97571.59;5119588;28;20003;-74
2023/07/15 02:48:54;;;;;;;;;;;;;;;25.48;68.18;97567.16;5125953;28;19935;-75
2023/07/15 02:51:22;;;;;;;;;;;;;;;25.53;68.17;97572.34;5115842;28;19970;-75
2023/07/15 02:53:48;;;;;;;;;;;;;;;25.52;68.24;97570.78;5124177;28;19935;-75
2023/07/15 02:56:14;;;;;;;;;;;;;;;25.48;67.92;97564.44;5122999;28;19963;-75
2023/07/15 02:58:41;;;;;;;;;;;;;;;25.48;68.26;97566.38;5124123;28;19920;-75
2023/07/15 03:01:08;;;;;;;;;;;;;;;25.51;68.05;97566.47;5108119;28;19923;-75
2023/07/15 03:03:35;;;;;;;;;;;;;;;25.51;67.92;97566.47;5125901;28;19924;-75
2023/07/15 03:06:03;;;;;;;;;;;;;;;25.41;68.66;97580.72;5104685;28;19924;-75
2023/07/15 03:08:30;;;;;;;;;;;;;;;25.40;68.51;97579.16;5123169;28;20027;-73
2023/07/15 03:10:56;;;;;;;;;;;;;;;25.20;69.06;97575.72;5126350;28;19935;-73
2023/07/15 03:13:25;;;;;;;;;;;;;;;24.87;70.48;97564.63;5126149;28;19983;-74
2023/07/15 03:15:52;;;;;;;;;;;;;;;24.94;70.75;97566.72;5104917;28;19930;-74
2023/07/15 03:18:21;;;;;;;;;;;;;;;25.14;70.18;97568.19;5122511;28;19925;-74
2023/07/15 03:20:47;;;;;;;;;;;;;;;25.28;69.54;97573.13;5132233;28;19923;-74
2023/07/15 03:23:15;;;;;;;;;;;;;;;25.13;69.74;97567.41;5126801;28;19959;-74
2023/07/15 03:25:41;;;;;;;;;;;;;;;25.01;70.75;97561.34;5127130;28;19959;-74
2023/07/15 03:28:08;;;;;;;;;;;;;;;25.13;70.02;97569.34;5106315;28;20337;-74
2023/07/15 03:30:34;;;;;;;;;;;;;;;25.14;69.93;97570.94;5104329;28;19928;-74
2023/07/15 03:33:00;;;;;;;;;;;;;;;25.01;70.20;97573.06;5126063;28;19924;-74
2023/07/15 03:35:27;;;;;;;;;;;;;;;25.09;70.29;97573.97;5125815;28;19952;-74
2023/07/15 03:37:53;;;;;;;;;;;;;;;25.09;69.96;97560.31;5122754;28;19924;-74
2023/07/15 03:40:21;;;;;;;;;;;;;;;25.14;69.73;97568.19;5103990;28;19924;-74
2023/07/15 03:42:47;;;;;;;;;;;;;;;25.14;69.77;97571.72;5124972;28;19983;-74
2023/07/15 03:45:14;;;;;;;;;;;;;;;25.10;69.54;97579.06;5125973;28;20086;-74
2023/07/15 03:47:40;;;;;;;;;;;;;;;25.18;69.24;97582.72;5124311;28;19935;-74
2023/07/15 03:50:07;;;;;;;;;;;;;;;25.07;69.81;97581.75;5125967;28;19958;-74
2023/07/15 03:52:34;;;;;;;;;;;;;;;25.08;69.49;97578.66;5107150;28;19928;-74
2023/07/15 03:55:00;;;;;;;;;;;;;;;24.92;70.22;97577.19;5125299;28;19978;-74
2023/07/15 03:57:28;;;;;;;;;;;;;;;24.96;70.31;97583.50;5106940;28;19930;-73
2023/07/15 03:59:54;;;;;;;;;;;;;;;24.91;70.36;97575.63;5121379;28;19928;-74
2023/07/15 04:02:20;;;;;;;;;;;;;;;24.65;72.04;97563.44;5121557;28;19965;-74
2023/07/15 04:04:47;;;;;;;;;;;;;;;24.49;73.16;97572.88;5123960;28;19923;-74
2023/07/15 04:07:13;;;;;;;;;;;;;;;24.34;74.51;97571.03;5125008;28;19924;-74
2023/07/15 04:09:40;;;;;;;;;;;;;;;23.93;79.75;97573.31;5123905;28;19999;-74
2023/07/15 04:12:07;;;;;;;;;;;;;;;24.25;77.41;97570.47;5121459;28;19946;-74
2023/07/15 04:14:35;;;;;;;;;;;;;;;23.49;82.98;97569.19;5103285;28;19924;-75
2023/07/15 04:17:01;;;;;;;;;;;;;;;23.04;88.03;97575.13;5124797;28;19924;-74
2023/07/15 04:19:27;;;;;;;;;;;;;;;23.55;85.24;97576.75;5124851;28;19924;-74
2023/07/15 04:21:54;;;;;;;;;;;;;;;23.07;87.79;97585.31;5111203;28;19956;-74
2023/07/15 04:24:20;;;;;;;;;;;;;;;23.70;84.83;97574.38;5121109;28;19927;-75
2023/07/15 04:26:46;;;;;;;;;;;;;;;23.38;85.63;97566.22;5123165;28;19931;-75
2023/07/15 04:29:13;;;;;;;;;;;;;;;23.45;86.13;97571.88;5124725;28;19923;-73
2023/07/15 04:31:42;;;;;;;;;;;;;;;24.04;82.27;97574.34;5123480;28;19924;-73
2023/07/15 04:34:08;;;;;;;;;;;;;;;24.09;81.08;97575.97;5120919;28;19935;-73
2023/07/15 04:36:35;;;;;;;;;;;;;;;23.30;86.02;97574.59;5121293;28;19939;-74
2023/07/15 04:39:01;;;;;;;;;;;;;;;22.91;90.86;97570.91;5124315;28;19959;-74
2023/07/15 04:41:27;;;;;;;;;;;;;;;23.34;88.60;97578.16;5124348;28;19924;-73
2023/07/15 04:43:54;;;;;;;;;;;;;;;23.49;86.86;97577.38;5121322;28;19934;-73
2023/07/15 04:46:20;;;;;;;;;;;;;;;23.33;87.98;97582.84;5102505;28;19924;-73
2023/07/15 04:48:49;;;;;;;;;;;;;;;23.31;87.91;97585.13;5122710;28;19924;-73
2023/07/15 04:51:15;;;;;;;;;;;;;;;22.91;91.04;97582.59;5132040;28;19935;-74
2023/07/15 04:53:43;;;;;;;;;;;;;;;23.23;90.32;97582.59;5123740;28;19923;-73
2023/07/15 04:56:10;;;;;;;;;;;;;;;22.62;95.50;97585.72;5121737;28;19924;-72
2023/07/15 04:58:36;;;;;;;;;;;;;;;22.93;93.89;97595.88;5121491;28;19979;-74
2023/07/15 05:01:03;;;;;;;;;;;;;;;21.98;100.00;97589.38;5124235;28;19953;-74
2023/07/15 05:03:29;;;;;;;;;;;;;;;22.47;99.26;97595.41;5124219;28;19958;-73
2023/07/15 05:05:57;;;;;;;;;;;;;;;22.99;92.89;97589.78;5121024;28;20039;-73
2023/07/15 05:08:23;;;;;;;;;;;;;;;22.59;96.92;97600.00;5122053;28;19979;-73
2023/07/15 05:10:51;;;;;;;;;;;;;;;21.58;100.00;97602.09;5123593;28;20294;-73
2023/07/15 05:13:18;;;;;;;;;;;;;;;21.82;100.00;97596.63;5123784;28;19931;-73
2023/07/15 05:15:44;;;;;;;;;;;;;;;23.07;94.22;97602.47;5121861;28;19951;-73
2023/07/15 05:18:10;;;;;;;;;;;;;;;23.42;90.13;97601.75;5120352;28;19924;-73
2023/07/15 05:20:37;;;;;;;;;;;;;;;22.87;95.52;97606.22;5129938;28;19959;-73
2023/07/15 05:23:05;;;;;;;;;;;;;;;22.66;98.44;97616.53;5124012;28;19966;-73
2023/07/15 05:25:32;;;;;;;;;;;;;;;22.20;100.00;97611.72;5123755;28;19924;-75
2023/07/15 05:27:58;;;;;;;;;;;;;;;22.14;100.00;97613.91;5111777;28;19924;-74
2023/07/15 05:30:25;;;;;;;;;;;;;;;22.60;100.00;97615.97;5120141;28;19935;-75
2023/07/15 05:32:52;;;;;;;;;;;;;;;22.26;100.00;97611.13;5122653;28;19956;-74
2023/07/15 05:35:18;;;;;;;;;;;;;;;22.09;100.00;97619.59;5123546;28;20007;-74
2023/07/15 05:37:46;;;;;;;;;;;;;;;22.07;100.00;97619.13;5121496;28;19930;-74
2023/07/15 05:40:14;;;;;;;;;;;;;;;22.15;100.00;97620.94;5101845;28;20052;-74
2023/07/15 05:42:40;;;;;;;;;;;;;;;22.56;100.00;97631.41;5121034;28;20033;-75
2023/07/15 05:45:07;;;;;;;;;;;;;;;23.13;98.29;97617.41;5123413;28;19960;-74
2023/07/15 05:47:34;;;;;;;;;;;;;;;23.14;99.03;97620.91;5123069;28;19924;-74
2023/07/15 05:50:04;;;;;;;;;;;;;;;22.96;99.62;97616.97;5104697;28;19931;-74
2023/07/15 05:52:31;;;;;;;;;;;;;;;22.85;100.00;97616.66;5105556;28;19924;-74
2023/07/15 05:54:57;;;;;;;;;;;;;;;23.24;97.85;97614.16;5093258;28;20046;-74
2023/07/15 05:57:25;;;;;;;;;;;;;;;22.91;98.78;97609.03;5119631;28;19924;-74
2023/07/15 05:59:51;;;;;;;;;;;;;;;22.88;100.00;97615.19;5103999;28;19963;-74
2023/07/15 06:02:18;;;;;;;;;;;;;;;22.93;100.00;97620.38;5122833;28;19966;-74
2023/07/15 06:04:44;;;;;;;;;;;;;;;22.90;100.00;97608.22;5121207;28;19974;-73
2023/07/15 06:07:10;;;;;;;;;;;;;;;23.06;100.00;97617.22;5101616;28;19924;-74
2023/07/15 06:09:37;;;;;;;;;;;;;;;23.39;98.47;97621.53;5120540;28;19931;-74
2023/07/15 06:12:04;;;;;;;;;;;;;;;23.55;96.54;97612.19;5122921;28;19924;-74
2023/07/15 06:14:31;;;;;;;;;;;;;;;23.48;99.09;97609.31;5122907;28;19935;-74
2023/07/15 06:16:58;;;;;;;;;;;;;;;23.65;97.98;97611.66;5110869;28;19959;-74
2023/07/15 06:19:24;;;;;;;;;;;;;;;24.22;92.50;97615.63;5119424;28;19932;-74
2023/07/15 06:21:51;;;;;;;;;;;;;;;24.83;88.09;97623.88;5127200;28;20387;-74
2023/07/15 06:24:18;;;;;;;;;;;;;;;24.93;86.97;97622.50;5101098;28;20421;-74
2023/07/15 06:26:44;;;;;;;;;;;;;;;24.83;88.09;97625.81;5120971;28;20098;-75
2023/07/15 06:29:11;;;;;;;;;;;;;;;25.10;86.63;97619.25;5123088;28;19935;-74
2023/07/15 06:31:38;;;;;;;;;;;;;;;25.23;87.41;97616.00;5104163;28;19923;-74
2023/07/15 06:34:05;;;;;;;;;;;;;;;25.13;87.62;97608.41;5101350;28;19924;-75
2023/07/15 06:36:31;;;;;;;;;;;;;;;24.99;89.29;97607.38;5119320;28;19924;-75
2023/07/15 06:38:57;;;;;;;;;;;;;;;25.14;89.02;97617.38;5110983;28;19999;-75
2023/07/15 06:41:24;;;;;;;;;;;;;;;25.13;89.43;97613.06;5119172;28;19931;-75
2023/07/15 06:43:50;;;;;;;;;;;;;;;25.00;91.83;97614.44;5121831;28;20042;-75
2023/07/15 06:46:16;;;;;;;;;;;;;;;24.82;93.72;97602.41;5122911;28;20290;-73
2023/07/15 06:48:45;;;;;;;;;;;;;;;24.73;94.68;97608.03;5121275;28;19924;-73
2023/07/15 06:51:14;;;;;;;;;;;;;;;24.73;96.04;97605.31;5124718;28;19983;-74
2023/07/15 06:53:40;;;;;;;;;;;;;;;25.16;91.91;97604.94;5121663;28;20060;-74
2023/07/15 06:56:07;;;;;;;;;;;;;;;25.81;87.21;97602.03;5119190;28;19996;-73
2023/07/15 06:58:33;;;;;;;;;;;;;;;25.77;88.49;97599.28;5119417;28;19924;-74
2023/07/15 07:00:59;;;;;;;;;;;;;;;25.95;86.97;97605.00;5122378;28;20306;-74
2023/07/15 07:03:27;;;;;;;;;;;;;;;25.76;88.48;97603.16;5122374;28;20026;-74
2023/07/15 07:05:55;;;;;;;;;;;;;;;25.47;91.88;97609.31;5101226;28;19924;-74
2023/07/15 07:08:22;;;;;;;;;;;;;;;25.72;90.59;97601.53;5118789;28;19987;-74
2023/07/15 07:10:50;;;;;;;;;;;;;;;25.60;91.84;97602.53;5121118;28;19931;-74
2023/07/15 07:13:17;;;;;;;;;;;;;;;25.66;92.06;97595.59;5122125;28;19963;-74
2023/07/15 07:15:43;;;;;;;;;;;;;;;25.58;93.16;97596.66;5120633;28;19990;-75
2023/07/15 07:18:09;;;;;;;;;;;;;;;25.58;94.03;97596.66;5118556;28;19987;-74
2023/07/15 07:20:36;;;;;;;;;;;;;;;25.64;93.61;97592.44;5126722;28;19998;-74
2023/07/15 07:23:03;;;;;;;;;;;;;;;25.71;93.96;97589.81;5122014;28;19931;-74
2023/07/15 07:25:30;;;;;;;;;;;;;;;25.70;95.36;97592.91;5103941;28;19991;-74
2023/07/15 07:27:56;;;;;;;;;;;;;;;25.73;95.34;97573.81;5118738;28;19999;-75
2023/07/15 07:30:23;;;;;;;;;;;;;;;25.66;95.84;97578.38;5118475;28;19992;-74
2023/07/15 07:32:49;;;;;;;;;;;;;;;25.68;96.79;97579.63;5102506;28;19931;-74
2023/07/15 07:35:17;;;;;;;;;;;;;;;25.74;97.22;97580.88;5125359;28;19971;-75
2023/07/15 07:37:43;;;;;;;;;;;;;;;26.24;91.92;97579.56;5124259;28;19924;-75
2023/07/15 07:40:11;;;;;;;;;;;;;;;26.73;89.07;97573.06;5121964;28;19990;-75
2023/07/15 07:42:38;;;;;;;;;;;;;;;26.41;93.11;97567.25;5122629;28;19924;-75
2023/07/15 07:45:12;;;;;;;;;;;;;;;26.19;94.47;97573.66;5125491;28;19966;-75
2023/07/15 07:47:38;;;;;;;;;;;;;;;26.25;94.45;97564.72;5124299;28;20014;-75
2023/07/15 07:50:05;;;;;;;;;;;;;;;26.04;95.55;97564.44;5107157;28;19983;-76
2023/07/15 07:52:32;;;;;;;;;;;;;;;26.13;95.38;97555.94;5125507;28;19924;-75
2023/07/15 07:54:58;;;;;;;;;;;;;;;26.47;92.57;97564.97;5129122;27;19944;-74
2023/07/15 07:57:26;;;;;;;;;;;;;;;26.76;90.25;97562.16;5121697;28;20023;-74
2023/07/15 07:59:53;;;;;;;;;;;;;;;26.41;91.80;97566.47;5124461;28;19934;-74
2023/07/15 08:02:19;;;;;;;;;;;;;;;26.30;92.76;97555.41;5125155;28;20397;-74
2023/07/15 08:04:48;;;;;;;;;;;;;;;26.24;94.07;97562.38;5105013;28;19924;-75
2023/07/15 08:07:14;;;;;;;;;;;;;;;26.44;92.41;97565.72;5103525;28;19931;-75
2023/07/15 08:09:41;;;;;;;;;;;;;;;26.41;91.34;97558.25;5122616;28;19924;-74
2023/07/15 08:12:08;;;;;;;;;;;;;;;26.47;92.08;97568.50;5124901;28;19928;-74
2023/07/15 08:14:36;;;;;;;;;;;;;;;26.61;91.04;97559.66;5124584;28;19927;-74
2023/07/15 08:17:02;;;;;;;;;;;;;;;26.68;90.65;97559.69;5103008;28;19924;-74
2023/07/15 08:19:29;;;;;;;;;;;;;;;26.71;91.70;97562.47;5103152;28;20396;-74
2023/07/15 08:21:55;;;;;;;;;;;;;;;26.78;90.38;97553.53;5129995;28;19987;-74
2023/07/15 08:24:21;;;;;;;;;;;;;;;26.98;88.12;97556.91;5122195;28;19992;-74
2023/07/15 08:26:48;;;;;;;;;;;;;;;27.09;87.87;97552.28;5124259;28;19924;-74
2023/07/15 08:29:14;;;;;;;;;;;;;;;27.25;87.96;97544.56;5124981;28;19951;-74
2023/07/15 08:31:42;;;;;;;;;;;;;;;27.25;84.66;97550.06;5123565;28;19935;-74
2023/07/15 08:34:08;;;;;;;;;;;;;;;27.20;83.67;97547.69;5121027;28;20510;-74
2023/07/15 08:36:36;;;;;;;;;;;;;;;27.28;84.50;97543.81;5121244;28;19923;-74
2023/07/15 08:39:02;;;;;;;;;;;;;;;27.48;83.89;97544.38;5106394;28;19935;-74
2023/07/15 08:41:29;;;;;;;;;;;;;;;27.58;83.79;97536.19;5124815;28;19924;-74
2023/07/15 08:43:55;;;;;;;;;;;;;;;27.67;82.15;97544.88;5137430;27;19924;-73
2023/07/15 08:46:26;;;;;;;;;;;;;;;27.63;81.04;97549.56;5120839;28;20015;-74
2023/07/15 08:48:54;;;;;;;;;;;;;;;27.68;80.53;97546.47;5105216;28;19930;-74
2023/07/15 08:51:22;;;;;;;;;;;;;;;27.72;80.26;97541.00;5131990;28;19924;-74
2023/07/15 08:53:48;;;;;;;;;;;;;;;27.83;80.25;97541.81;5122124;28;19959;-74
2023/07/15 08:56:16;;;;;;;;;;;;;;;28.31;78.88;97545.97;5120689;28;19928;-74
2023/07/15 08:58:42;;;;;;;;;;;;;;;28.21;77.61;97535.75;5121893;28;20006;-74
2023/07/15 09:01:09;;;;;;;;;;;;;;;28.31;78.07;97528.72;5124361;28;19959;-73
2023/07/15 09:03:35;;;;;;;;;;;;;;;28.48;76.60;97529.91;5105594;28;19924;-74
2023/07/15 09:06:03;;;;;;;;;;;;;;;28.56;76.88;97524.06;5120846;28;19924;-74
2023/07/15 09:08:29;;;;;;;;;;;;;;;28.64;74.85;97525.63;5120764;28;19935;-74
2023/07/15 09:10:56;;;;;;;;;;;;;;;28.48;73.62;97525.22;5105977;28;19946;-74
2023/07/15 09:13:24;;;;;;;;;;;;;;;28.52;74.05;97522.47;5124076;28;19991;-74
2023/07/15 09:15:50;;;;;;;;;;;;;;;28.51;73.70;97527.19;5121483;28;19924;-74
2023/07/15 09:18:17;;;;;;;;;;;;;;;28.56;72.82;97529.56;5120305;28;20089;-73
2023/07/15 09:20:44;;;;;;;;;;;;;;;28.74;71.80;97529.63;5111259;28;19955;-73
2023/07/15 09:23:12;;;;;;;;;;;;;;;28.82;72.10;97526.47;5124035;28;19959;-74
2023/07/15 09:25:38;;;;;;;;;;;;;;;28.88;71.11;97527.66;5123286;28;19932;-73
2023/07/15 09:28:08;;;;;;;;;;;;;;;28.91;70.79;97518.63;5102952;28;19966;-73
2023/07/15 09:30:34;;;;;;;;;;;;;;;29.04;70.56;97509.97;5121281;28;19977;-73
2023/07/15 09:33:01;;;;;;;;;;;;;;;29.06;69.58;97510.38;5124611;28;19950;-74
2023/07/15 09:35:35;;;;;;;;;;;;;;;29.18;68.37;97505.28;5123559;28;19978;-74
2023/07/15 09:38:01;;;;;;;;;;;;;;;29.19;67.54;97508.78;5111993;28;19939;-74
2023/07/15 09:40:40;;;;;;;;;;;;;;;29.34;67.03;97502.91;5101600;28;19928;-75
2023/07/15 09:43:07;;;;;;;;;;;;;;;29.42;66.29;97500.94;5112538;28;20374;-75
2023/07/15 09:45:34;;;;;;;;;;;;;;;29.68;65.43;97499.69;5119891;28;19983;-75
2023/07/15 09:48:01;;;;;;;;;;;;;;;29.60;64.71;97501.66;5104886;28;19966;-75
2023/07/15 09:50:28;;;;;;;;;;;;;;;29.59;64.62;97488.28;5122982;28;19963;-75
2023/07/15 09:52:55;;;;;;;;;;;;;;;29.56;64.56;97498.13;5123028;28;19962;-76
2023/07/15 09:55:22;;;;;;;;;;;;;;;29.77;64.77;97487.06;5104439;28;19966;-76
2023/07/15 09:57:54;;;;;;;;;;;;;;;29.88;63.36;97495.31;5119869;28;19979;-76
2023/07/15 10:00:20;;;;;;;;;;;;;;;29.90;62.30;97488.22;5119437;28;19934;-76
2023/07/15 10:02:49;;;;;;;;;;;;;;;29.92;62.36;97493.34;5121442;28;20323;-76
2023/07/15 10:05:16;;;;;;;;;;;;;;;30.26;61.58;97490.81;5122742;28;19924;-76
2023/07/15 10:07:42;;;;;;;;;;;;;;;30.21;59.76;97478.22;5121407;28;19955;-76
2023/07/15 10:10:09;;;;;;;;;;;;;;;30.28;59.97;97477.41;5101467;28;20006;-76
2023/07/15 10:12:36;;;;;;;;;;;;;;;30.34;58.68;97475.78;5119548;28;20039;-76
2023/07/15 10:15:05;;;;;;;;;;;;;;;30.50;56.76;97473.34;5104695;28;20392;-76
2023/07/15 10:17:33;;;;;;;;;;;;;;;30.55;55.20;97472.91;5122200;28;22964;-76
2023/07/15 10:20:03;;;;;;;;;;;;;;;30.72;55.61;97460.19;5114428;28;19959;-76
2023/07/15 10:22:34;;;;;;;;;;;;;;;30.88;55.42;97460.47;5123231;28;19956;-76
2023/07/15 10:25:02;;;;;;;;;;;;;;;30.80;55.95;97456.97;5111001;28;19992;-76
2023/07/15 10:27:29;;;;;;;;;;;;;;;30.91;55.21;97465.94;5101090;28;19924;-75
2023/07/15 10:30:10;;;;;;;;;;;;;;;31.07;55.12;97461.91;5122322;28;20021;-75
2023/07/15 10:32:38;;;;;;;;;;;;;;;31.15;54.78;97457.88;5122172;27;19967;-75
2023/07/15 10:35:04;;;;;;;;;;;;;;;31.19;55.22;97451.13;5119138;28;20010;-75
2023/07/15 10:37:34;;;;;;;;;;;;;;;31.27;53.16;97447.09;5118769;28;19924;-75
2023/07/15 10:40:00;;;;;;;;;;;;;;;31.31;52.62;97447.06;5110759;28;20019;-77
2023/07/15 10:42:37;;;;;;;;;;;;;;;31.33;51.93;97436.41;5118941;28;20041;-76
2023/07/15 10:45:03;;;;;;;;;;;;;;;31.45;52.52;97441.38;5111317;28;19931;-76
2023/07/15 10:47:30;;;;;;;;;;;;;;;31.69;52.36;97443.09;5118932;28;19952;-75
2023/07/15 10:49:57;;;;;;;;;;;;;;;31.59;51.84;97430.22;5121893;28;19980;-75
2023/07/15 10:52:24;;;;;;;;;;;;;;;31.55;51.71;97424.75;5105442;28;19931;-75
2023/07/15 10:54:54;;;;;;;;;;;;;;;31.45;52.56;97422.06;5121164;28;20002;-75
2023/07/15 10:57:20;;;;;;;;;;;;;;;31.69;52.73;97426.53;5104310;28;19931;-76
2023/07/15 10:59:47;;;;;;;;;;;;;;;31.73;53.19;97419.00;5120469;28;19965;-75
2023/07/15 11:02:13;;;;;;;;;;;;;;;31.80;52.54;97420.88;5118979;28;19924;-75
2023/07/15 11:04:40;;;;;;;;;;;;;;;32.07;52.80;97419.75;5120013;28;19928;-75
2023/07/15 11:07:10;;;;;;;;;;;;;;;32.03;52.20;97407.19;5122517;28;19924;-75
2023/07/15 11:09:37;;;;;;;;;;;;;;;31.80;53.35;97407.88;5125575;28;19969;-75
2023/07/15 11:12:04;;;;;;;;;;;;;;;31.71;52.45;97402.06;5122987;28;19939;-76
2023/07/15 11:14:31;;;;;;;;;;;;;;;31.83;52.91;97409.00;5122699;28;20015;-75
2023/07/15 11:16:58;;;;;;;;;;;;;;;31.94;52.94;97404.13;5107757;28;19959;-75
2023/07/15 11:19:26;;;;;;;;;;;;;;;31.54;54.68;97394.78;5125888;28;19923;-75
2023/07/15 11:21:53;;;;;;;;;;;;;;;31.96;52.61;97398.97;5131588;28;19980;-75
2023/07/15 11:24:21;;;;;;;;;;;;;;;32.04;52.40;97394.94;5122557;28;19924;-76
2023/07/15 11:26:48;;;;;;;;;;;;;;;32.20;51.78;97395.09;5124427;28;19924;-75
2023/07/15 11:29:15;;;;;;;;;;;;;;;32.20;51.53;97388.78;5126007;28;20314;-75
2023/07/15 11:31:41;;;;;;;;;;;;;;;32.49;51.33;97389.91;5106469;28;19923;-76
2023/07/15 11:34:09;;;;;;;;;;;;;;;32.55;51.00;97375.19;5123124;28;20358;-76
2023/07/15 11:36:36;;;;;;;;;;;;;;;32.56;50.99;97379.53;5124354;28;19924;-76
2023/07/15 11:39:04;;;;;;;;;;;;;;;32.69;50.52;97376.94;5108818;28;19923;-75
2023/07/15 11:41:32;;;;;;;;;;;;;;;32.53;50.51;97374.81;5125773;28;19946;-75
2023/07/15 11:43:58;;;;;;;;;;;;;;;31.94;51.72;97366.22;5113845;28;19928;-75
2023/07/15 11:46:25;;;;;;;;;;;;;;;32.34;51.28;97358.19;5122314;28;20006;-75
2023/07/15 11:48:51;;;;;;;;;;;;;;;32.59;50.66;97362.09;5106258;28;19948;-75
2023/07/15 11:51:20;;;;;;;;;;;;;;;32.74;50.66;97359.09;5133549;28;19983;-75
2023/07/15 11:53:46;;;;;;;;;;;;;;;32.80;50.49;97360.97;5123683;28;19992;-75
2023/07/15 11:56:31;;;;;;;;;;;;;;;32.89;48.04;97352.91;5121897;28;19949;-75
2023/07/15 11:58:59;;;;;;;;;;;;;;;33.09;47.48;97356.47;5125317;28;19924;-75
2023/07/15 12:01:26;;;;;;;;;;;;;;;33.12;47.85;97336.25;5125426;28;19934;-76
2023/07/15 12:03:52;;;;;;;;;;;;;;;33.36;47.05;97341.75;5122765;28;19924;-74
2023/07/15 12:06:20;;;;;;;;;;;;;;;33.27;46.68;97331.22;5121952;28;19928;-76
2023/07/15 12:08:59;;;;;;;;;;;;;;;32.92;46.67;97335.44;5123998;28;19946;-76
2023/07/15 12:11:25;;;;;;;;;;;;;;;33.21;45.18;97332.16;5125477;28;19924;-76
2023/07/15 12:13:51;;;;;;;;;;;;;;;32.87;46.86;97327.63;5104838;28;20595;-76
2023/07/15 12:16:21;;;;;;;;;;;;;;;33.19;46.50;97327.03;5122221;28;19970;-75
2023/07/15 12:18:47;;;;;;;;;;;;;;;33.27;46.28;97324.94;5105096;28;19924;-75
2023/07/15 12:21:13;;;;;;;;;;;;;;;33.29;48.33;97308.66;5132925;28;20029;-75
2023/07/15 12:23:41;;;;;;;;;;;;;;;33.51;46.33;97309.78;5123069;28;19987;-75
2023/07/15 12:26:07;;;;;;;;;;;;;;;33.53;46.71;97296.28;5121484;28;19952;-75
2023/07/15 12:28:34;;;;;;;;;;;;;;;33.31;45.30;97298.72;5121877;28;20117;-75
2023/07/15 12:31:01;;;;;;;;;;;;;;;33.79;44.66;97297.31;5124762;28;19947;-74
2023/07/15 12:33:29;;;;;;;;;;;;;;;33.92;44.41;97303.75;5125001;28;19946;-75
2023/07/15 12:35:56;;;;;;;;;;;;;;;33.75;44.44;97296.59;5121752;28;19927;-76
2023/07/15 12:38:22;;;;;;;;;;;;;;;33.96;44.40;97294.13;5121453;28;19932;-76
2023/07/15 12:40:48;;;;;;;;;;;;;;;33.81;44.17;97281.81;5105171;28;19931;-75
2023/07/15 12:43:15;;;;;;;;;;;;;;;33.91;44.26;97286.34;5124658;28;20007;-75
2023/07/15 12:45:41;;;;;;;;;;;;;;;33.97;44.49;97289.34;5123515;28;19955;-75